Weather at El Calafate - Commander Armando Tola International Airport

Public forecast

Using degrees Celsius for public forecast. Weather courtesy of forecast.io.

Closest aviation weather report (METAR) to El Calafate - Commander Armando Tola International Airport

Report is more than 6 hours old.

Closest report is Lieutenant Julio Gallardo Airport, 85.4 nm (158.2 km) SSW.

2024/04/12 21:00 (retrieved 12 hours ago)

SCNT 122100Z 14008KT 090V160 CAVOK 11/05 Q1025

Closest aviation forecast (TAF) to El Calafate - Commander Armando Tola International Airport

Forecast is more than 12 hours old.

Closest forecast is Lieutenant Julio Gallardo Airport, 85.4 nm (158.2 km) SSW.

2024/04/12 12:00 (retrieved 21 hours ago)

TAF SCNT 121002Z 1212/1300 VRB03KT 9999 FEW010 TN05/1300Z TX13/1218Z BECMG 1215/1217 35009KT TEMPO 1219/1300 5000 BCFG SCT008 BKN012